Terminal Aerodrome Forecast
Issued by NWS

Home | Current Version | Previous Version | Graphics & Text | Print | Product List | Glossary On
Versions: 1 2 3 4 5 6 7 8 9 10 11 12 13 14 15 16
994
FTUS43 KIWX 211734
TAFSBN
TAF
KSBN 211734Z 2118/2218 16006KT P6SM SCT050 BKN250
     FM220300 15012KT P6SM VCTS BKN050CB
      TEMPO 2204/2208 2SM TSRA OVC030CB
     FM220800 20008KT 6SM -SHRA VCTS SCT015 OVC040CB
     FM221300 23010KT P6SM BKN040=

USA.gov is the U.S. government's official web portal to all federal, state and local government web resources and services.